^^
Meteo Knjazevac Station Historical Data
Daily Summary for April 8, 2021 Units:  English    Metric   Both
Daily Weekly Monthly Yearly Custom
  High: Low: Average:
Temperature: 61.5 °F 52.2 °F 55.6 °F
Dew Point: 57.9 °F 51.1 °F 53.8 °F
Humidity: 96% 88% 94%
Wind Speed: 2mph 0mph 0.5mph
Wind Gust: 4mph - -
Wind- - WSW
Pressure: 30.12 in 30.09 in -
Precipitation: 0.00 in    
Historical Graphs
 
 
Tabular Data for April 8, 2021
Time Temperature Dew Point Pressure Wind Wind Speed Wind Gust Humidity Rainfall Rate (Hourly) solar Conditions
00:00 61.5 °F 57.9 °F 30.12 in Calm   3 mph 88% 0.00 in 0 W/m2
00:10 61.1 °F 57.8 °F 30.12 in Calm   2 mph 89% 0.00 in 0 W/m2
00:20 60.6 °F 57.4 °F 30.12 in SW 1 mph 2 mph 89% 0.00 in 0 W/m2
00:30 59.9 °F 57 °F 30.12 in Calm   2 mph 90% 0.00 in 0 W/m2
00:40 59.3 °F 56.4 °F 30.11 in West 1 mph 2 mph 90% 0.00 in 0 W/m2
00:50 58.8 °F 56.1 °F 30.11 in WNW 1 mph 2 mph 91% 0.00 in 0 W/m2
01:00 58.4 °F 55.8 °F 30.11 in Calm   2 mph 91% 0.00 in 0 W/m2
01:10 57.9 °F 55.9 °F 30.11 in WSW 2 mph 4 mph 93% 0.00 in 0 W/m2
01:20 57.6 °F 55.6 °F 30.11 in Calm   3 mph 93% 0.00 in 0 W/m2
01:30 57.4 °F 55.7 °F 30.11 in Calm   2 mph 94% 0.00 in 0 W/m2
01:40 57.6 °F 55.8 °F 30.11 in SSE 2 mph 4 mph 94% 0.00 in 0 W/m2
01:50 57.2 °F 55.2 °F 30.11 in SW 1 mph 4 mph 93% 0.00 in 0 W/m2
02:00 56.8 °F 55.1 °F 30.11 in Calm   2 mph 94% 0.00 in 0 W/m2
02:10 56.7 °F 55 °F 30.11 in SW 1 mph 3 mph 94% 0.00 in 0 W/m2
02:20 56.4 °F 54.7 °F 30.11 in Calm   2 mph 94% 0.00 in 0 W/m2
02:30 55.9 °F 54.2 °F 30.10 in WNW 1 mph 2 mph 94% 0.00 in 0 W/m2
02:40 55.4 °F 53.4 °F 30.10 in Calm   2 mph 93% 0.00 in 0 W/m2
02:50 55 °F 53.3 °F 30.10 in Calm   2 mph 94% 0.00 in 0 W/m2
03:00 54.7 °F 53 °F 30.10 in SW 1 mph 2 mph 94% 0.00 in 0 W/m2
03:10 54.3 °F 52.6 °F 30.10 in Calm   2 mph 94% 0.00 in 0 W/m2
03:20 54.3 °F 52.9 °F 30.09 in North 1 mph 2 mph 95% 0.00 in 0 W/m2
03:30 54.1 °F 52.7 °F 30.09 in NW 1 mph 2 mph 95% 0.00 in 0 W/m2
03:40 53.6 °F 52.2 °F 30.09 in WSW 1 mph 3 mph 95% 0.00 in 0 W/m2
03:50 53.2 °F 51.8 °F 30.10 in Calm   2 mph 95% 0.00 in 0 W/m2
04:00 53.2 °F 51.8 °F 30.10 in WNW 1 mph 2 mph 95% 0.00 in 0 W/m2
04:10 53.1 °F 51.7 °F 30.10 in Calm   2 mph 95% 0.00 in 0 W/m2
04:20 52.9 °F 51.5 °F 30.10 in Calm   2 mph 95% 0.00 in 0 W/m2
04:30 52.8 °F 51.7 °F 30.10 in North 1 mph 4 mph 96% 0.00 in 0 W/m2
04:40 52.7 °F 51.6 °F 30.10 in NNW 1 mph 2 mph 96% 0.00 in 0 W/m2
04:50 52.7 °F 51.6 °F 30.10 in Calm   2 mph 96% 0.00 in 3 W/m2
05:00 52.4 °F 51.3 °F 30.10 in Calm   2 mph 96% 0.00 in 8 W/m2
05:10 52.3 °F 51.2 °F 30.10 in Calm   3 mph 96% 0.00 in 14 W/m2
05:20 52.3 °F 51.2 °F 30.10 in Calm   2 mph 96% 0.00 in 23 W/m2
05:30 52.2 °F 51.1 °F 30.10 in Calm   2 mph 96% 0.00 in 33 W/m2
05:40 52.2 °F 51.1 °F 30.11 in Calm   2 mph 96% 0.00 in 42 W/m2
Knjazevac, Serbia
Compliments of Weather Underground - 2 mb